Terminal Aerodrome Forecast
Issued by NWS Cleveland, OH

Home | Current Version | Previous Version | Text Only | Print | Product List | Glossary On
Versions: 1 2 3 4 5 6 7 8 9 10 11 12 13 14 15 16
517
FTUS41 KCLE 240343 AAB
TAFTOL
TAF AMD
KTOL 240343Z 2404/2424 13005KT P6SM -SHRA VCTS OVC050CB
      TEMPO 2404/2406 5SM -RA OVC050
     FM240600 16006KT P6SM VCSH OVC060
     FM240800 20010KT P6SM OVC080 WS020/23050KT
     FM241600 22019G27KT P6SM BKN030 BKN080
     FM242200 22014KT P6SM SCT030 BKN080=

USA.gov is the U.S. government's official web portal to all federal, state and local government web resources and services.